createdAt,value
2014-08-08T00:00:03.540Z,82
2014-08-08T00:00:21.634Z,82
2014-08-08T00:00:39.915Z,82
2014-08-08T00:00:58.214Z,82
2014-08-08T00:01:16.495Z,82
2014-08-08T00:01:34.792Z,82
2014-08-08T00:01:53.075Z,82
2014-08-08T00:02:11.372Z,82
2014-08-08T00:02:29.653Z,82
2014-08-08T00:02:47.937Z,82
2014-08-08T00:03:06.233Z,82
2014-08-08T00:03:24.515Z,82
2014-08-08T00:03:42.796Z,82
2014-08-08T00:04:01.095Z,82
2014-08-08T00:04:19.376Z,82
2014-08-08T00:04:37.657Z,82
2014-08-08T00:04:55.957Z,82
2014-08-08T00:05:14.238Z,81
2014-08-08T00:05:32.520Z,81
2014-08-08T00:05:50.817Z,81
2014-08-08T00:06:09.099Z,81
2014-08-08T00:06:27.380Z,81
2014-08-08T00:06:45.661Z,81
2014-08-08T00:07:03.958Z,82
2014-08-08T00:07:22.242Z,82
2014-08-08T00:07:40.539Z,82
2014-08-08T00:07:58.821Z,82
2014-08-08T00:08:17.103Z,82
2014-08-08T00:08:35.400Z,82
2014-08-08T00:08:53.681Z,82
2014-08-08T00:09:11.978Z,82
2014-08-08T00:09:30.261Z,82
2014-08-08T00:09:48.558Z,82
2014-08-08T00:10:06.839Z,82
2014-08-08T00:10:25.123Z,82
2014-08-08T00:10:43.420Z,82
2014-08-08T00:11:01.702Z,82
2014-08-08T00:11:19.983Z,82
2014-08-08T00:11:38.282Z,82
2014-08-08T00:11:56.563Z,82
2014-08-08T00:12:14.844Z,82
2014-08-08T00:12:33.143Z,82
2014-08-08T00:12:51.424Z,82
2014-08-08T00:13:09.721Z,82
2014-08-08T00:13:28.002Z,82
2014-08-08T00:13:46.285Z,82
2014-08-08T00:14:04.582Z,82
2014-08-08T00:14:22.863Z,82
2014-08-08T00:14:41.163Z,82
2014-08-08T00:14:59.444Z,82
2014-08-08T00:15:17.725Z,82
2014-08-08T00:15:36.022Z,82
2014-08-08T00:15:54.305Z,82
2014-08-08T00:16:12.602Z,82
2014-08-08T00:16:30.883Z,82
2014-08-08T00:16:49.166Z,82
2014-08-08T00:17:07.447Z,82
2014-08-08T00:17:25.744Z,82
2014-08-08T00:17:44.025Z,82
2014-08-08T00:18:02.325Z,82
2014-08-08T00:18:20.606Z,82
2014-08-08T00:18:38.887Z,82
2014-08-08T00:18:57.186Z,82
2014-08-08T00:19:15.468Z,82
2014-08-08T00:19:33.749Z,82
2014-08-08T00:19:52.048Z,82
2014-08-08T00:20:10.329Z,82
2014-08-08T00:20:28.610Z,82
2014-08-08T00:20:46.891Z,82
2014-08-08T00:21:05.190Z,82
2014-08-08T00:21:23.472Z,82
2014-08-08T00:21:41.768Z,82
2014-08-08T00:22:00.052Z,82
2014-08-08T00:22:18.333Z,82
2014-08-08T00:22:36.630Z,82
2014-08-08T00:22:54.912Z,82
2014-08-08T00:23:13.193Z,82
2014-08-08T00:23:31.490Z,82
2014-08-08T00:23:49.773Z,82
2014-08-08T00:24:08.055Z,82
2014-08-08T00:24:26.352Z,82
2014-08-08T00:24:44.633Z,82
2014-08-08T00:25:02.901Z,82
2014-08-08T00:25:21.214Z,82
2014-08-08T00:25:39.495Z,82
2014-08-08T00:25:57.777Z,82
2014-08-08T00:26:16.074Z,82
2014-08-08T00:26:34.356Z,82
2014-08-08T00:26:52.654Z,82
2014-08-08T00:27:10.936Z,82
2014-08-08T00:27:29.217Z,82
2014-08-08T00:27:47.514Z,82
2014-08-08T00:28:05.797Z,82
2014-08-08T00:28:24.078Z,82
2014-08-08T00:28:42.360Z,82
2014-08-08T00:29:00.658Z,82
2014-08-08T00:29:18.940Z,82
2014-08-08T00:29:37.237Z,82
2014-08-08T00:29:55.520Z,82
2014-08-08T00:30:13.801Z,82
2014-08-08T00:30:32.098Z,82
2014-08-08T00:30:50.379Z,82
2014-08-08T00:31:08.662Z,82
2014-08-08T00:31:26.959Z,82
2014-08-08T00:31:45.241Z,82
2014-08-08T00:32:03.539Z,82
2014-08-08T00:32:21.821Z,82
2014-08-08T00:32:40.102Z,82
2014-08-08T00:32:58.399Z,82
2014-08-08T00:33:16.682Z,82
2014-08-08T00:33:34.979Z,82
2014-08-08T00:33:53.260Z,82
2014-08-08T00:34:11.560Z,82
2014-08-08T00:34:29.841Z,82
2014-08-08T00:34:48.123Z,82
2014-08-08T00:35:06.419Z,83
2014-08-08T00:35:24.702Z,82
2014-08-08T00:35:42.999Z,83
2014-08-08T00:36:01.280Z,83
2014-08-08T00:36:19.563Z,83
2014-08-08T00:36:37.860Z,83
2014-08-08T00:36:56.141Z,83
2014-08-08T00:37:14.422Z,83
2014-08-08T00:37:32.721Z,83
2014-08-08T00:37:51.018Z,83
2014-08-08T00:38:09.299Z,83
2014-08-08T00:38:27.583Z,83
2014-08-08T00:38:45.880Z,83
2014-08-08T00:39:04.161Z,83
2014-08-08T00:39:22.442Z,83
2014-08-08T00:39:40.726Z,83
2014-08-08T00:39:59.023Z,83
2014-08-08T00:40:17.304Z,84
2014-08-08T00:40:35.602Z,84
2014-08-08T00:40:53.884Z,84
2014-08-08T00:41:12.165Z,84
2014-08-08T00:41:30.462Z,84
2014-08-08T00:41:48.746Z,84
2014-08-08T00:42:07.027Z,84
2014-08-08T00:42:25.308Z,84
2014-08-08T00:42:43.606Z,84
2014-08-08T00:43:01.888Z,84
2014-08-08T00:43:20.169Z,84
2014-08-08T00:43:38.466Z,84
2014-08-08T00:43:56.749Z,84
2014-08-08T00:44:15.046Z,84
2014-08-08T00:44:33.311Z,84
2014-08-08T00:44:51.611Z,84
2014-08-08T00:45:09.893Z,84
2014-08-08T00:45:28.189Z,84
2014-08-08T00:45:46.471Z,84
2014-08-08T00:46:04.753Z,84
2014-08-08T00:46:23.034Z,84
2014-08-08T00:46:41.331Z,84
2014-08-08T00:46:59.614Z,84
2014-08-08T00:47:17.911Z,84
2014-08-08T00:47:36.192Z,84
2014-08-08T00:47:54.477Z,84
2014-08-08T00:48:12.758Z,84
2014-08-08T00:48:31.055Z,84
2014-08-08T00:48:49.338Z,84
2014-08-08T00:49:07.619Z,84
2014-08-08T00:49:25.901Z,84
2014-08-08T00:49:44.182Z,84
2014-08-08T00:50:02.481Z,84
2014-08-08T00:50:20.762Z,84
2014-08-08T00:50:39.043Z,84
2014-08-08T00:50:57.326Z,84
2014-08-08T00:51:15.623Z,84
2014-08-08T00:51:33.905Z,84
2014-08-08T00:51:52.202Z,84
2014-08-08T00:52:10.484Z,84
2014-08-08T00:52:28.765Z,84
2014-08-08T00:52:47.062Z,84
2014-08-08T00:53:05.345Z,84
2014-08-08T00:53:23.829Z,84
2014-08-08T00:53:41.923Z,84
2014-08-08T00:54:00.206Z,84
2014-08-08T00:54:18.503Z,84
2014-08-08T00:54:36.785Z,84
2014-08-08T00:54:55.068Z,84
2014-08-08T00:55:13.365Z,84
2014-08-08T00:55:31.662Z,84
2014-08-08T00:55:49.945Z,84
2014-08-08T00:56:08.226Z,84
2014-08-08T00:56:26.507Z,84
2014-08-08T00:56:44.804Z,84
2014-08-08T00:57:03.087Z,84
2014-08-08T00:57:21.384Z,84
2014-08-08T00:57:39.666Z,84
2014-08-08T00:57:57.949Z,84
2014-08-08T00:58:16.246Z,84
2014-08-08T00:58:34.527Z,84
2014-08-08T00:58:52.810Z,84
2014-08-08T00:59:11.107Z,84
2014-08-08T00:59:29.388Z,84
2014-08-08T00:59:47.685Z,84
2014-08-08T01:00:05.968Z,84
2014-08-08T01:00:24.250Z,84
2014-08-08T01:00:42.531Z,84
2014-08-08T01:01:00.829Z,84
2014-08-08T01:01:19.110Z,84
2014-08-08T01:01:37.391Z,84
2014-08-08T01:01:55.690Z,84
2014-08-08T01:02:13.971Z,85
2014-08-08T01:02:32.253Z,85
2014-08-08T01:02:50.552Z,85
2014-08-08T01:03:08.833Z,85
2014-08-08T01:03:27.130Z,85
2014-08-08T01:03:45.411Z,85
2014-08-08T01:04:03.694Z,85
2014-08-08T01:04:21.991Z,85
2014-08-08T01:04:40.272Z,85
2014-08-08T01:04:58.571Z,85
2014-08-08T01:05:16.852Z,85
2014-08-08T01:05:35.134Z,85
2014-08-08T01:05:53.433Z,85
2014-08-08T01:06:11.714Z,85
2014-08-08T01:06:29.995Z,85
2014-08-08T01:06:48.292Z,85
2014-08-08T01:07:06.575Z,85
2014-08-08T01:07:24.856Z,85
2014-08-08T01:07:43.153Z,85
2014-08-08T01:08:01.453Z,85
2014-08-08T01:08:19.734Z,85
2014-08-08T01:08:38.016Z,85
2014-08-08T01:08:56.297Z,85
2014-08-08T01:09:14.595Z,85
2014-08-08T01:09:32.876Z,85
2014-08-08T01:09:51.173Z,85
2014-08-08T01:10:09.456Z,85
2014-08-08T01:10:27.737Z,85
2014-08-08T01:10:46.034Z,85
2014-08-08T01:11:04.316Z,85
2014-08-08T01:11:22.614Z,85
2014-08-08T01:11:40.896Z,85
2014-08-08T01:11:59.177Z,85
2014-08-08T01:12:17.476Z,85
2014-08-08T01:12:35.773Z,85
2014-08-08T01:12:54.054Z,85
2014-08-08T01:13:12.335Z,85
2014-08-08T01:13:30.619Z,85
2014-08-08T01:13:48.916Z,85
2014-08-08T01:14:07.198Z,85
2014-08-08T01:14:25.495Z,85
2014-08-08T01:14:43.777Z,85
2014-08-08T01:15:02.058Z,85
2014-08-08T01:15:20.355Z,85
2014-08-08T01:15:38.638Z,85
2014-08-08T01:15:56.935Z,85
2014-08-08T01:16:15.216Z,85
2014-08-08T01:16:33.500Z,86
2014-08-08T01:16:51.797Z,86
2014-08-08T01:17:10.079Z,86
2014-08-08T01:17:28.360Z,86
2014-08-08T01:17:46.658Z,86
2014-08-08T01:18:04.939Z,86
2014-08-08T01:18:23.220Z,86
2014-08-08T01:18:41.520Z,86
2014-08-08T01:18:59.801Z,86
2014-08-08T01:19:18.083Z,86
2014-08-08T01:19:36.379Z,86
2014-08-08T01:19:54.662Z,86
2014-08-08T01:20:12.943Z,86
2014-08-08T01:20:31.240Z,86
2014-08-08T01:20:49.524Z,86
2014-08-08T01:21:07.805Z,86
2014-08-08T01:21:26.087Z,86
2014-08-08T01:21:44.368Z,86
2014-08-08T01:22:02.667Z,86
2014-08-08T01:22:20.948Z,86
2014-08-08T01:22:39.229Z,86
2014-08-08T01:22:57.528Z,86
2014-08-08T01:23:15.809Z,86
2014-08-08T01:23:34.106Z,86
2014-08-08T01:23:52.388Z,86
2014-08-08T01:24:10.670Z,86
2014-08-08T01:24:28.951Z,86
2014-08-08T01:24:47.232Z,86
2014-08-08T01:25:05.531Z,86
2014-08-08T01:25:23.812Z,86
2014-08-08T01:25:42.094Z,86
2014-08-08T01:26:00.378Z,86
2014-08-08T01:26:18.675Z,86
2014-08-08T01:26:36.956Z,86
2014-08-08T01:26:55.239Z,86
2014-08-08T01:27:13.536Z,86
2014-08-08T01:27:31.802Z,86
2014-08-08T01:27:50.101Z,86
2014-08-08T01:28:08.397Z,86
2014-08-08T01:28:26.679Z,86
2014-08-08T01:28:44.960Z,86
2014-08-08T01:29:03.258Z,88
2014-08-08T01:29:21.539Z,88
2014-08-08T01:29:39.820Z,88
2014-08-08T01:29:58.104Z,88
2014-08-08T01:30:16.400Z,88
2014-08-08T01:30:34.682Z,88
2014-08-08T01:30:52.965Z,88
2014-08-08T01:31:11.246Z,88
2014-08-08T01:31:29.543Z,88
2014-08-08T01:31:47.824Z,88
2014-08-08T01:32:06.108Z,88
2014-08-08T01:32:24.389Z,88
2014-08-08T01:32:42.670Z,88
2014-08-08T01:33:03.594Z,88
2014-08-08T01:33:21.688Z,88
2014-08-08T01:33:39.969Z,88
2014-08-08T01:33:58.252Z,88
2014-08-08T01:34:16.533Z,88
2014-08-08T01:34:34.815Z,88
2014-08-08T01:34:53.112Z,88
2014-08-08T01:35:11.395Z,88
2014-08-08T01:35:29.676Z,88
2014-08-08T01:35:47.957Z,88
2014-08-08T01:36:06.256Z,88
2014-08-08T01:36:24.537Z,88
2014-08-08T01:36:42.819Z,88
2014-08-08T01:37:01.116Z,88
2014-08-08T01:37:19.399Z,88
2014-08-08T01:37:37.696Z,88
2014-08-08T01:37:55.977Z,88
2014-08-08T01:38:14.260Z,88
2014-08-08T01:38:32.557Z,88
2014-08-08T01:38:50.838Z,88
2014-08-08T01:39:09.120Z,88
2014-08-08T01:39:27.403Z,88
2014-08-08T01:39:45.684Z,88
2014-08-08T01:40:03.981Z,88
2014-08-08T01:40:22.264Z,88
2014-08-08T01:40:40.545Z,88
2014-08-08T01:40:58.827Z,88
2014-08-08T01:41:17.108Z,88
2014-08-08T01:41:35.407Z,88
2014-08-08T01:41:53.688Z,88
2014-08-08T01:42:11.969Z,88
2014-08-08T01:42:30.254Z,88
2014-08-08T01:42:48.550Z,88
2014-08-08T01:43:06.832Z,88
2014-08-08T01:43:25.113Z,88
2014-08-08T01:43:43.395Z,88
2014-08-08T01:44:01.692Z,88
2014-08-08T01:44:19.973Z,88
2014-08-08T01:44:38.258Z,88
2014-08-08T01:44:56.539Z,88
2014-08-08T01:45:14.836Z,88
2014-08-08T01:45:33.117Z,88
2014-08-08T01:45:51.400Z,88
2014-08-08T01:46:09.681Z,88
2014-08-08T01:46:27.963Z,88
2014-08-08T01:46:46.262Z,88
2014-08-08T01:47:04.543Z,88
2014-08-08T01:47:22.824Z,88
2014-08-08T01:47:41.105Z,88
2014-08-08T01:47:59.389Z,88
2014-08-08T01:48:17.685Z,88
2014-08-08T01:48:35.967Z,90
2014-08-08T01:48:54.250Z,90
2014-08-08T01:49:12.547Z,90
2014-08-08T01:49:30.828Z,90
2014-08-08T01:49:49.111Z,90
2014-08-08T01:50:07.408Z,90
2014-08-08T01:50:25.689Z,90
2014-08-08T01:50:43.971Z,90
2014-08-08T01:51:02.253Z,90
2014-08-08T01:51:20.534Z,90
2014-08-08T01:51:38.831Z,90
2014-08-08T01:51:57.114Z,90
2014-08-08T01:52:15.396Z,90
2014-08-08T01:52:33.677Z,90
2014-08-08T01:52:51.974Z,90
2014-08-08T01:53:10.258Z,90
2014-08-08T01:53:28.539Z,90
2014-08-08T01:53:46.836Z,90
2014-08-08T01:54:05.119Z,90
2014-08-08T01:54:23.401Z,90
2014-08-08T01:54:41.697Z,90
2014-08-08T01:54:59.979Z,90
2014-08-08T01:55:18.261Z,90
2014-08-08T01:55:36.542Z,90
2014-08-08T01:55:54.839Z,90
2014-08-08T01:56:13.123Z,90
2014-08-08T01:56:31.405Z,90
2014-08-08T01:56:49.686Z,90
2014-08-08T01:57:07.983Z,90
2014-08-08T01:57:26.266Z,90
2014-08-08T01:57:44.563Z,90
2014-08-08T01:58:02.844Z,90
2014-08-08T01:58:21.127Z,90
2014-08-08T01:58:39.424Z,90
2014-08-08T01:58:57.705Z,90
2014-08-08T01:59:15.987Z,90
2014-08-08T01:59:34.270Z,90
2014-08-08T01:59:52.567Z,90
2014-08-08T02:00:10.848Z,90
2014-08-08T02:00:29.131Z,90
2014-08-08T02:00:47.428Z,90
2014-08-08T02:01:05.709Z,90
2014-08-08T02:01:24.006Z,90
2014-08-08T02:01:42.290Z,90
2014-08-08T02:02:00.571Z,90
2014-08-08T02:02:18.868Z,90
2014-08-08T02:02:37.151Z,90
2014-08-08T02:02:55.432Z,90
2014-08-08T02:03:13.713Z,90
2014-08-08T02:03:32.010Z,90
2014-08-08T02:03:50.294Z,90
2014-08-08T02:04:08.590Z,90
2014-08-08T02:04:26.872Z,90
2014-08-08T02:04:45.155Z,90
2014-08-08T02:05:03.452Z,90
2014-08-08T02:05:21.733Z,90
2014-08-08T02:05:40.014Z,90
2014-08-08T02:05:58.314Z,90
2014-08-08T02:06:16.595Z,90
2014-08-08T02:06:34.877Z,90
2014-08-08T02:06:53.175Z,90
2014-08-08T02:07:11.456Z,90
2014-08-08T02:07:29.737Z,90
2014-08-08T02:07:48.034Z,90
2014-08-08T02:08:06.317Z,90
2014-08-08T02:08:24.598Z,90
2014-08-08T02:08:42.895Z,90
2014-08-08T02:09:01.179Z,90
2014-08-08T02:09:19.475Z,90
2014-08-08T02:09:37.757Z,90
2014-08-08T02:09:56.040Z,90
2014-08-08T02:10:14.337Z,90
2014-08-08T02:10:32.618Z,90
2014-08-08T02:10:50.899Z,90
2014-08-08T02:11:09.198Z,90
2014-08-08T02:11:27.479Z,90
2014-08-08T02:11:45.761Z,90
2014-08-08T02:12:04.061Z,90
2014-08-08T02:12:22.342Z,90
2014-08-08T02:12:40.639Z,90
2014-08-08T02:12:58.920Z,90
2014-08-08T02:13:17.203Z,90
2014-08-08T02:13:35.484Z,90
2014-08-08T02:13:53.781Z,90
2014-08-08T02:14:12.065Z,90
2014-08-08T02:14:30.361Z,90
2014-08-08T02:14:48.643Z,90
2014-08-08T02:15:06.924Z,90
2014-08-08T02:15:25.222Z,90
2014-08-08T02:15:43.503Z,90
2014-08-08T02:16:01.784Z,90
2014-08-08T02:16:20.069Z,90
2014-08-08T02:16:38.365Z,90
2014-08-08T02:16:56.647Z,90
2014-08-08T02:17:14.944Z,90
2014-08-08T02:17:33.226Z,90
2014-08-08T02:17:51.523Z,90
2014-08-08T02:18:09.804Z,90
2014-08-08T02:18:28.088Z,90
2014-08-08T02:18:46.369Z,90
2014-08-08T02:19:04.666Z,93
2014-08-08T02:19:22.948Z,93
2014-08-08T02:19:41.230Z,93
2014-08-08T02:19:59.511Z,93
2014-08-08T02:20:17.808Z,93
2014-08-08T02:20:36.092Z,93
2014-08-08T02:20:54.389Z,93
2014-08-08T02:21:12.670Z,93
2014-08-08T02:21:30.952Z,93
2014-08-08T02:21:49.266Z,93
2014-08-08T02:22:07.547Z,93
2014-08-08T02:22:25.844Z,93
2014-08-08T02:22:44.127Z,93
2014-08-08T02:23:02.409Z,93
2014-08-08T02:23:20.706Z,93
2014-08-08T02:23:38.987Z,93
2014-08-08T02:23:57.286Z,93
2014-08-08T02:24:15.567Z,93
2014-08-08T02:24:33.848Z,93
2014-08-08T02:24:52.147Z,93
2014-08-08T02:25:10.428Z,93
2014-08-08T02:25:28.725Z,94
2014-08-08T02:25:47.006Z,93
2014-08-08T02:26:05.289Z,93
2014-08-08T02:26:23.586Z,93
2014-08-08T02:26:41.867Z,94
2014-08-08T02:27:00.150Z,94
2014-08-08T02:27:18.431Z,93
2014-08-08T02:27:36.728Z,93
2014-08-08T02:27:55.012Z,94
2014-08-08T02:28:13.294Z,93
2014-08-08T02:28:31.575Z,93
2014-08-08T02:28:49.874Z,94
2014-08-08T02:29:08.155Z,94
2014-08-08T02:29:26.436Z,94
2014-08-08T02:29:44.733Z,94
2014-08-08T02:30:03.016Z,94
2014-08-08T02:30:21.298Z,94
2014-08-08T02:30:39.595Z,94
2014-08-08T02:30:57.877Z,94
2014-08-08T02:31:16.158Z,94
2014-08-08T02:31:34.455Z,94
2014-08-08T02:31:52.738Z,94
2014-08-08T02:32:11.035Z,94
2014-08-08T02:32:29.316Z,94
2014-08-08T02:32:47.598Z,94
2014-08-08T02:33:05.896Z,94
2014-08-08T02:33:24.178Z,94
2014-08-08T02:33:42.459Z,94
2014-08-08T02:34:00.945Z,94
2014-08-08T02:34:19.039Z,94
2014-08-08T02:34:37.320Z,94
2014-08-08T02:34:55.604Z,94
2014-08-08T02:35:13.885Z,94
2014-08-08T02:35:32.182Z,94
2014-08-08T02:35:50.464Z,94
2014-08-08T02:36:08.745Z,94
2014-08-08T02:36:27.042Z,94
2014-08-08T02:36:45.323Z,94
2014-08-08T02:37:03.608Z,94
2014-08-08T02:37:21.904Z,94
2014-08-08T02:37:40.186Z,94
2014-08-08T02:37:58.469Z,94
2014-08-08T02:38:16.750Z,94
2014-08-08T02:38:35.047Z,94
2014-08-08T02:38:53.330Z,94
2014-08-08T02:39:11.815Z,94
2014-08-08T02:39:29.908Z,94
2014-08-08T02:39:48.205Z,94
2014-08-08T02:40:06.489Z,94
2014-08-08T02:40:24.770Z,94
2014-08-08T02:40:43.067Z,94
2014-08-08T02:41:01.350Z,94
2014-08-08T02:41:19.631Z,94
2014-08-08T02:41:37.928Z,94
2014-08-08T02:41:56.210Z,94
2014-08-08T02:42:14.492Z,94
2014-08-08T02:42:32.788Z,94
2014-08-08T02:42:51.072Z,94
2014-08-08T02:43:09.353Z,94
2014-08-08T02:43:27.650Z,94
2014-08-08T02:43:45.931Z,94
2014-08-08T02:44:04.214Z,94
2014-08-08T02:44:22.511Z,94
2014-08-08T02:44:40.792Z,94
2014-08-08T02:44:59.076Z,94
2014-08-08T02:45:17.373Z,94
2014-08-08T02:45:35.654Z,94
2014-08-08T02:45:53.937Z,94
2014-08-08T02:46:12.218Z,94
2014-08-08T02:46:30.515Z,94
2014-08-08T02:46:48.796Z,94
2014-08-08T02:47:07.095Z,94
2014-08-08T02:47:25.377Z,94
2014-08-08T02:47:43.658Z,94
2014-08-08T02:48:01.941Z,94
2014-08-08T02:48:20.238Z,94
2014-08-08T02:48:38.535Z,94
2014-08-08T02:48:56.818Z,94
2014-08-08T02:49:15.099Z,94
2014-08-08T02:49:33.396Z,94
2014-08-08T02:49:51.679Z,94
2014-08-08T02:50:09.961Z,94
2014-08-08T02:50:28.258Z,94
2014-08-08T02:50:46.539Z,94
2014-08-08T02:51:04.822Z,94
2014-08-08T02:51:23.306Z,94
2014-08-08T02:51:41.400Z,94
2014-08-08T02:51:59.699Z,94
2014-08-08T02:52:17.980Z,94
2014-08-08T02:52:36.262Z,94
2014-08-08T02:52:54.558Z,94
2014-08-08T02:53:12.841Z,94
2014-08-08T02:53:31.138Z,94
2014-08-08T02:53:49.419Z,94
2014-08-08T02:54:07.719Z,94
2014-08-08T02:54:26.000Z,94
2014-08-08T02:54:44.281Z,94
2014-08-08T02:55:02.562Z,94
2014-08-08T02:55:20.860Z,94
2014-08-08T02:55:39.142Z,94
2014-08-08T02:55:57.438Z,94
2014-08-08T02:56:15.723Z,94
2014-08-08T02:56:34.004Z,94
2014-08-08T02:56:52.285Z,94
2014-08-08T02:57:10.582Z,94
2014-08-08T02:57:28.865Z,94
2014-08-08T02:57:47.147Z,94
2014-08-08T02:58:05.443Z,94
2014-08-08T02:58:23.727Z,94
2014-08-08T02:58:42.008Z,94
2014-08-08T02:59:00.305Z,94
2014-08-08T02:59:18.586Z,94
2014-08-08T02:59:36.869Z,94
2014-08-08T02:59:55.166Z,94
2014-08-08T03:00:13.447Z,94
2014-08-08T03:00:31.746Z,94
2014-08-08T03:00:50.028Z,94
2014-08-08T03:01:08.324Z,94
2014-08-08T03:01:26.606Z,94
2014-08-08T03:01:44.905Z,94
2014-08-08T03:02:03.186Z,94
2014-08-08T03:02:21.483Z,94
2014-08-08T03:02:39.766Z,94
2014-08-08T03:02:58.063Z,94
2014-08-08T03:03:16.360Z,94
2014-08-08T03:03:34.641Z,94
2014-08-08T03:03:52.940Z,94
2014-08-08T03:04:11.221Z,94
2014-08-08T03:04:29.518Z,94
2014-08-08T03:04:47.817Z,94
2014-08-08T03:05:06.114Z,94
2014-08-08T03:05:24.411Z,94
2014-08-08T03:05:42.692Z,94
2014-08-08T03:06:00.991Z,94
2014-08-08T03:06:19.475Z,94
2014-08-08T03:06:37.569Z,94
2014-08-08T03:06:55.869Z,94
2014-08-08T03:07:14.150Z,94
2014-08-08T03:07:32.447Z,94
2014-08-08T03:07:50.746Z,94
2014-08-08T03:08:09.027Z,94
2014-08-08T03:08:27.324Z,94
2014-08-08T03:08:45.605Z,94
2014-08-08T03:09:03.903Z,94
2014-08-08T03:09:22.184Z,94
2014-08-08T03:09:40.481Z,94
2014-08-08T03:09:58.780Z,94
2014-08-08T03:10:17.077Z,94
2014-08-08T03:10:35.374Z,94
2014-08-08T03:10:53.657Z,94
2014-08-08T03:11:11.938Z,94
2014-08-08T03:11:30.235Z,94
2014-08-08T03:11:48.516Z,94
2014-08-08T03:12:06.815Z,94
2014-08-08T03:12:25.096Z,94
2014-08-08T03:12:43.393Z,94
2014-08-08T03:13:01.677Z,94
2014-08-08T03:13:19.973Z,94
2014-08-08T03:13:38.255Z,94
2014-08-08T03:13:56.553Z,94
2014-08-08T03:14:14.834Z,94
2014-08-08T03:14:33.131Z,94
2014-08-08T03:14:51.414Z,94
2014-08-08T03:15:09.711Z,94
2014-08-08T03:15:27.992Z,94
2014-08-08T03:15:46.289Z,94
2014-08-08T03:16:04.573Z,94
2014-08-08T03:16:22.870Z,94
2014-08-08T03:16:41.151Z,94
2014-08-08T03:16:59.450Z,94
2014-08-08T03:17:17.731Z,94
2014-08-08T03:17:36.013Z,94
2014-08-08T03:17:54.312Z,94
2014-08-08T03:18:12.608Z,94
2014-08-08T03:18:30.890Z,94
2014-08-08T03:18:49.187Z,94
2014-08-08T03:19:07.470Z,94
2014-08-08T03:19:25.767Z,94
2014-08-08T03:19:44.048Z,94
2014-08-08T03:20:02.346Z,94
2014-08-08T03:20:20.627Z,94
2014-08-08T03:20:38.924Z,94
2014-08-08T03:20:57.224Z,94
2014-08-08T03:21:15.505Z,94
2014-08-08T03:21:33.802Z,94
2014-08-08T03:21:52.084Z,94
2014-08-08T03:22:10.381Z,94
2014-08-08T03:22:28.662Z,94
2014-08-08T03:22:46.959Z,94
2014-08-08T03:23:05.243Z,94
2014-08-08T03:23:23.540Z,94
2014-08-08T03:23:41.837Z,94
2014-08-08T03:24:00.118Z,94
2014-08-08T03:24:18.416Z,94
2014-08-08T03:24:36.698Z,94
2014-08-08T03:24:54.994Z,94
2014-08-08T03:25:13.278Z,94
2014-08-08T03:25:31.575Z,94
2014-08-08T03:25:49.856Z,94
2014-08-08T03:26:08.153Z,94
2014-08-08T03:26:26.452Z,94
2014-08-08T03:26:44.733Z,94
2014-08-08T03:27:03.030Z,94
2014-08-08T03:27:21.330Z,94
2014-08-08T03:27:39.626Z,94
2014-08-08T03:27:57.923Z,94
2014-08-08T03:28:16.220Z,94
2014-08-08T03:28:34.503Z,94
2014-08-08T03:28:53.003Z,94
2014-08-08T03:29:11.097Z,94
2014-08-08T03:29:29.380Z,94
2014-08-08T03:29:47.677Z,94
2014-08-08T03:30:05.974Z,94
2014-08-08T03:30:24.255Z,94
2014-08-08T03:30:42.553Z,94
2014-08-08T03:31:00.850Z,94
2014-08-08T03:31:19.147Z,94
2014-08-08T03:31:37.431Z,94
2014-08-08T03:31:55.713Z,94
2014-08-08T03:32:14.009Z,94
2014-08-08T03:32:32.306Z,94
2014-08-08T03:32:50.590Z,94
2014-08-08T03:33:08.886Z,94
2014-08-08T03:33:27.183Z,94
2014-08-08T03:33:45.467Z,94
2014-08-08T03:34:03.763Z,94
2014-08-08T03:34:22.060Z,94
2014-08-08T03:34:40.342Z,94
2014-08-08T03:34:58.640Z,94
2014-08-08T03:35:16.937Z,94
2014-08-08T03:35:35.234Z,94
2014-08-08T03:35:53.517Z,94
2014-08-08T03:36:11.846Z,94
2014-08-08T03:36:30.127Z,94
2014-08-08T03:36:48.408Z,94
2014-08-08T03:37:06.707Z,94
2014-08-08T03:37:24.988Z,94
2014-08-08T03:37:43.285Z,94
2014-08-08T03:38:01.568Z,94
2014-08-08T03:38:19.865Z,94
2014-08-08T03:38:38.162Z,94
2014-08-08T03:38:56.647Z,94
2014-08-08T03:39:14.741Z,94
2014-08-08T03:39:33.022Z,94
2014-08-08T03:39:51.321Z,94
2014-08-08T03:40:09.618Z,94
2014-08-08T03:40:27.899Z,94
2014-08-08T03:40:46.196Z,94
2014-08-08T03:41:04.496Z,94
2014-08-08T03:41:22.793Z,94
2014-08-08T03:41:41.074Z,94
2014-08-08T03:41:59.373Z,94
2014-08-08T03:42:17.654Z,94
2014-08-08T03:42:35.951Z,94
2014-08-08T03:42:54.249Z,94
2014-08-08T03:43:12.530Z,94
2014-08-08T03:43:30.812Z,94
2014-08-08T03:43:49.109Z,94
2014-08-08T03:44:07.407Z,94
2014-08-08T03:44:25.704Z,94
2014-08-08T03:44:44.001Z,94
2014-08-08T03:45:02.284Z,94
2014-08-08T03:45:20.581Z,94
2014-08-08T03:45:38.863Z,94
2014-08-08T03:45:57.161Z,94
2014-08-08T03:46:15.458Z,94
2014-08-08T03:46:33.740Z,94
2014-08-08T03:46:52.039Z,94
2014-08-08T03:47:10.321Z,94
2014-08-08T03:47:28.618Z,94
2014-08-08T03:47:46.899Z,94
2014-08-08T03:48:05.198Z,94
2014-08-08T03:48:23.510Z,94
2014-08-08T03:48:41.807Z,94
2014-08-08T03:49:00.089Z,94
2014-08-08T03:49:18.386Z,94
2014-08-08T03:49:36.667Z,94
2014-08-08T03:49:54.966Z,94
2014-08-08T03:50:13.263Z,94
2014-08-08T03:50:31.544Z,94
2014-08-08T03:50:49.841Z,94
2014-08-08T03:51:08.125Z,94
2014-08-08T03:51:26.421Z,94
2014-08-08T03:51:44.703Z,94
2014-08-08T03:52:03.002Z,94
2014-08-08T03:52:21.283Z,94
2014-08-08T03:52:39.580Z,94
2014-08-08T03:52:57.879Z,94
2014-08-08T03:53:16.175Z,94
2014-08-08T03:53:34.472Z,94
2014-08-08T03:53:52.771Z,94
2014-08-08T03:54:11.052Z,94
2014-08-08T03:54:29.349Z,94
2014-08-08T03:54:47.646Z,94
2014-08-08T03:55:05.929Z,94
2014-08-08T03:55:24.226Z,94
2014-08-08T03:55:42.508Z,94
2014-08-08T03:56:00.805Z,94
2014-08-08T03:56:19.102Z,93
2014-08-08T03:56:37.384Z,93
2014-08-08T03:56:55.682Z,93
2014-08-08T03:57:13.979Z,93
2014-08-08T03:57:32.261Z,93
2014-08-08T03:57:50.557Z,93
2014-08-08T03:58:08.841Z,93
2014-08-08T03:58:27.138Z,93
2014-08-08T03:58:45.434Z,93
2014-08-08T03:59:03.733Z,93
2014-08-08T03:59:22.015Z,93
2014-08-08T03:59:40.311Z,93
2014-08-08T03:59:58.595Z,93
2014-08-08T04:00:16.892Z,93
2014-08-08T04:00:35.188Z,93
2014-08-08T04:00:53.487Z,94
2014-08-08T04:01:11.769Z,93
2014-08-08T04:01:30.065Z,93
2014-08-08T04:01:48.362Z,94
2014-08-08T04:02:06.661Z,94
2014-08-08T04:02:24.942Z,94
2014-08-08T04:02:43.239Z,94
2014-08-08T04:03:01.538Z,94
2014-08-08T04:03:19.835Z,94
2014-08-08T04:03:38.132Z,94
2014-08-08T04:03:56.415Z,94
2014-08-08T04:04:14.712Z,94
2014-08-08T04:04:33.009Z,94
2014-08-08T04:04:51.292Z,94
2014-08-08T04:05:09.589Z,94
2014-08-08T04:05:27.870Z,94
2014-08-08T04:05:46.167Z,94
2014-08-08T04:06:04.450Z,94
2014-08-08T04:06:22.747Z,94
2014-08-08T04:06:41.044Z,94
2014-08-08T04:06:59.343Z,94
2014-08-08T04:07:17.624Z,94
2014-08-08T04:07:35.921Z,94
2014-08-08T04:07:54.220Z,94
2014-08-08T04:08:12.501Z,94
2014-08-08T04:08:30.798Z,94
2014-08-08T04:08:49.095Z,94
2014-08-08T04:09:07.394Z,94
2014-08-08T04:09:25.675Z,94
2014-08-08T04:09:43.972Z,94
2014-08-08T04:10:02.255Z,94
2014-08-08T04:10:20.552Z,94
2014-08-08T04:10:38.849Z,94
2014-08-08T04:10:57.131Z,94
2014-08-08T04:11:15.428Z,94
2014-08-08T04:11:33.725Z,94
2014-08-08T04:11:52.008Z,94
2014-08-08T04:12:10.305Z,94
2014-08-08T04:12:28.586Z,94
2014-08-08T04:12:46.883Z,94
2014-08-08T04:13:05.182Z,93
2014-08-08T04:13:23.463Z,93
2014-08-08T04:13:41.760Z,93
2014-08-08T04:14:00.059Z,93
2014-08-08T04:14:18.356Z,93
2014-08-08T04:14:36.637Z,93
2014-08-08T04:14:54.936Z,93
2014-08-08T04:15:13.217Z,93
2014-08-08T04:15:31.717Z,93
2014-08-08T04:15:49.811Z,93
2014-08-08T04:16:08.110Z,93
2014-08-08T04:16:26.391Z,93
2014-08-08T04:16:44.688Z,93
2014-08-08T04:17:02.971Z,93
2014-08-08T04:17:21.268Z,93
2014-08-08T04:17:39.550Z,93
2014-08-08T04:17:57.848Z,93
2014-08-08T04:18:16.145Z,93
2014-08-08T04:18:34.442Z,93
2014-08-08T04:18:52.741Z,93
2014-08-08T04:19:11.022Z,93
2014-08-08T04:19:29.319Z,93
2014-08-08T04:19:47.600Z,93
2014-08-08T04:20:05.899Z,93
2014-08-08T04:20:24.196Z,93
2014-08-08T04:20:42.477Z,93